Time;durP1;ratioP1;P1;durP2;ratioP2;P2;SDS_P1;SDS_P2;PMS_P1;PMS_P2;Temp;Humidity;BMP_temperature;BMP_pressure;BME280_temperature;BME280_humidity;BME280_pressure;Samples;Min_cycle;Max_cycle;Signal;HPM_P1;HPM_P2
2023/02/16 00:02:10;;;;;;;30.98;18.20;;;3.40;1.00;;;;;;5076892;28;20186;-82
2023/02/16 00:04:37;;;;;;;23.23;18.58;;;3.50;1.00;;;;;;5076540;28;20226;-82
2023/02/16 00:07:04;;;;;;;30.45;18.35;;;;;;;;;;5077942;28;20229;-83
2023/02/16 00:09:31;;;;;;;28.20;19.27;;;3.20;1.00;;;;;;5077495;28;20687;-83
2023/02/16 00:14:44;;;;;;;23.67;18.33;;;3.90;1.00;;;;;;5076380;28;20226;-82
2023/02/16 00:17:11;;;;;;;24.13;18.23;;;3.80;1.00;;;;;;5076782;28;20206;-83
2023/02/16 00:19:40;;;;;;;27.52;19.42;;;3.30;1.00;;;;;;5091046;28;20225;-82
2023/02/16 00:22:09;;;;;;;24.90;18.30;;;3.20;99.90;;;;;;5096777;28;20243;-82
2023/02/16 00:24:36;;;;;;;24.75;18.25;;;3.30;1.00;;;;;;5095515;28;20219;-82
2023/02/16 00:27:12;;;;;;;26.02;19.80;;;3.50;99.90;;;;;;5091734;28;20221;-81
2023/02/16 00:29:39;;;;;;;27.15;19.05;;;3.40;1.00;;;;;;5080835;28;20289;-82
2023/02/16 00:32:06;;;;;;;30.58;18.10;;;3.60;1.00;;;;;;5077512;28;20289;-82
2023/02/16 00:34:34;;;;;;;28.67;17.25;;;2.70;99.90;;;;;;5077373;28;20312;-82
2023/02/16 00:37:04;;;;;;;24.85;18.98;;;3.80;1.00;;;;;;5083070;28;20571;-82
2023/02/16 00:39:31;;;;;;;26.13;18.67;;;3.70;1.00;;;;;;5085010;28;20238;-82
2023/02/16 00:42:01;;;;;;;24.30;17.30;;;3.40;1.00;;;;;;5081172;28;20704;-82
2023/02/16 00:44:33;;;;;;;23.50;17.42;;;3.50;1.00;;;;;;5080940;28;20223;-82
2023/02/16 00:47:02;;;;;;;21.50;17.10;;;3.60;1.00;;;;;;5077656;28;20187;-82
2023/02/16 00:49:29;;;;;;;27.45;18.60;;;3.10;1.00;;;;;;5079493;28;20229;-82
2023/02/16 00:51:56;;;;;;;26.25;17.92;;;2.60;99.90;;;;;;5096949;28;20278;-81
2023/02/16 00:54:23;;;;;;;23.33;16.35;;;3.00;1.00;;;;;;5097559;28;20230;-82
2023/02/16 00:56:50;;;;;;;23.45;16.30;;;;;;;;;;5096395;28;20198;-81
2023/02/16 00:59:22;;;;;;;20.13;17.52;;;3.70;1.00;;;;;;5087853;28;20549;-82
2023/02/16 01:01:50;;;;;;;24.00;16.55;;;3.10;1.00;;;;;;5077951;28;20654;-82
2023/02/16 01:04:20;;;;;;;22.92;17.05;;;3.20;1.00;;;;;;5078336;28;20230;-82
2023/02/16 01:12:19;;;;;;;24.73;18.25;;;3.20;1.00;;;;;;5075569;28;20671;-83
2023/02/16 01:14:50;;;;;;;22.90;16.15;;;3.00;1.00;;;;;;5087983;28;20246;-82
2023/02/16 01:17:18;;;;;;;21.80;18.02;;;3.10;1.00;;;;;;5089732;28;20194;-82
2023/02/16 01:19:45;;;;;;;24.25;17.52;;;3.60;1.00;;;;;;5089253;28;20241;-82
2023/02/16 01:22:12;;;;;;;26.90;17.15;;;3.00;1.00;;;;;;5094321;28;20282;-80
2023/02/16 01:24:38;;;;;;;25.98;16.77;;;2.80;1.00;;;;;;5095153;28;20246;-81
2023/02/16 01:27:05;;;;;;;24.08;17.45;;;;;;;;;;5094419;28;20213;-81
2023/02/16 01:29:32;;;;;;;22.17;17.33;;;2.70;1.00;;;;;;5081455;28;20262;-83
2023/02/16 01:31:59;;;;;;;21.92;14.88;;;3.30;1.00;;;;;;5079611;28;20202;-82
2023/02/16 01:34:27;;;;;;;24.98;17.38;;;3.20;99.90;;;;;;5078355;28;20730;-82
2023/02/16 01:36:54;;;;;;;25.20;18.00;;;2.60;1.00;;;;;;5078871;28;20213;-82
2023/02/16 01:39:21;;;;;;;26.15;16.67;;;3.40;1.00;;;;;;5087433;28;20293;-82
2023/02/16 01:42:02;;;;;;;33.92;21.15;;;2.70;1.00;;;;;;5094856;28;20229;-80
2023/02/16 01:44:34;;;;;;;25.27;19.05;;;2.90;99.90;;;;;;5094362;28;20253;-82
2023/02/16 01:47:05;;;;;;;25.05;17.60;;;2.70;1.00;;;;;;5086090;28;20191;-83
2023/02/16 01:49:33;;;;;;;27.65;17.13;;;2.90;1.00;;;;;;5083952;28;20187;-82
2023/02/16 01:52:06;;;;;;;22.60;16.20;;;3.00;99.90;;;;;;5082714;28;20201;-82
2023/02/16 01:54:38;;;;;;;24.45;15.75;;;2.90;1.00;;;;;;5084495;28;20219;-81
2023/02/16 01:57:20;;;;;;;24.10;17.35;;;3.00;1.00;;;;;;5084616;28;20210;-82
2023/02/16 02:00:06;;;;;;;24.38;16.90;;;3.30;1.00;;;;;;5087570;28;20174;-82
2023/02/16 02:02:38;;;;;;;25.05;16.13;;;3.20;1.00;;;;;;5090394;28;20274;-82
2023/02/16 02:05:34;;;;;;;23.65;17.00;;;2.90;1.00;;;;;;5091213;28;20218;-81
2023/02/16 02:08:09;;;;;;;25.63;17.40;;;3.30;1.00;;;;;;5092389;28;20203;-81
2023/02/16 02:10:44;;;;;;;23.73;16.10;;;3.20;1.00;;;;;;5093170;28;20190;-81
2023/02/16 02:13:17;;;;;;;21.23;15.93;;;2.90;1.00;;;;;;5090466;28;20692;-82
2023/02/16 02:15:44;;;;;;;24.95;17.10;;;2.10;1.00;;;;;;5083206;28;20357;-82
2023/02/16 02:18:10;;;;;;;27.92;18.02;;;2.70;1.00;;;;;;5082265;28;20558;-82
2023/02/16 02:23:49;;;;;;;29.80;17.83;;;2.70;1.00;;;;;;5083884;28;20348;-84
2023/02/16 02:29:45;;;;;;;29.98;17.73;;;2.70;99.90;;;;;;5116141;27;1238240;-83
2023/02/16 02:32:21;;;;;;;28.25;18.48;;;2.70;1.00;;;;;;5083319;28;20213;-81
2023/02/16 02:35:04;;;;;;;23.58;17.50;;;2.70;99.90;;;;;;5113921;28;20189;-81
2023/02/16 02:37:41;;;;;;;26.23;19.38;;;2.70;1.00;;;;;;5114703;28;20780;-83
2023/02/16 02:40:15;;;;;;;27.60;18.85;;;2.50;1.00;;;;;;5117302;22;20600;-85
2023/02/16 02:42:52;;;;;;;26.75;17.83;;;3.00;1.00;;;;;;5077468;28;20213;-84
2023/02/16 02:45:24;;;;;;;29.10;16.83;;;2.30;1.00;;;;;;5092832;28;20198;-85
2023/02/16 02:47:51;;;;;;;23.50;17.98;;;2.70;1.00;;;;;;5095926;28;20244;-84
2023/02/16 02:50:37;;;;;;;25.73;18.88;;;2.60;99.90;;;;;;5095560;28;20219;-84
2023/02/16 02:53:06;;;;;;;28.35;19.63;;;2.70;99.90;;;;;;5093751;28;20167;-83
2023/02/16 03:01:17;;;;;;;24.95;16.95;;;2.80;1.00;;;;;;5093140;28;20214;-84
2023/02/16 03:03:48;;;;;;;25.98;18.58;;;2.40;1.00;;;;;;5093766;28;20205;-82
2023/02/16 03:06:21;;;;;;;26.17;18.55;;;2.20;1.00;;;;;;5087607;28;20219;-84
2023/02/16 03:08:53;;;;;;;27.15;17.95;;;2.80;1.00;;;;;;5076932;28;20252;-84
2023/02/16 03:14:14;;;;;;;24.95;18.27;;;2.10;1.00;;;;;;5075991;28;20657;-84
2023/02/16 03:16:45;;;;;;;28.42;17.60;;;2.10;1.00;;;;;;5075983;28;20217;-83
2023/02/16 03:30:21;;;;;;;27.48;17.20;;;1.90;1.00;;;;;;5075209;28;20247;-84
2023/02/16 03:32:49;;;;;;;22.25;16.25;;;2.20;1.00;;;;;;5074980;28;20271;-83
2023/02/16 03:35:16;;;;;;;23.08;17.38;;;2.50;1.00;;;;;;5080967;28;20206;-83
2023/02/16 03:37:44;;;;;;;29.75;17.92;;;2.70;1.00;;;;;;5085102;28;20249;-83
2023/02/16 03:40:31;;;;;;;24.70;18.13;;;2.10;1.00;;;;;;5064971;28;20729;-83
2023/02/16 03:43:02;;;;;;;22.38;15.80;;;2.00;99.90;;;;;;5063140;28;20200;-81
2023/02/16 03:45:29;;;;;;;24.63;16.70;;;2.20;1.00;;;;;;5060819;28;20715;-82
2023/02/16 03:47:57;;;;;;;26.00;18.05;;;2.40;1.00;;;;;;5060557;28;20268;-80
2023/02/16 03:50:25;;;;;;;23.08;16.83;;;2.30;1.00;;;;;;5060872;28;20227;-81
2023/02/16 03:53:05;;;;;;;20.25;15.68;;;1.90;1.00;;;;;;5060751;28;20208;-80
2023/02/16 03:55:32;;;;;;;25.20;17.10;;;1.80;1.00;;;;;;5059791;28;20213;-84
2023/02/16 03:57:59;;;;;;;23.33;17.00;;;2.10;99.90;;;;;;5059552;28;20751;-84
2023/02/16 04:00:26;;;;;;;22.38;16.77;;;1.90;1.00;;;;;;5060271;28;20330;-83
2023/02/16 04:02:53;;;;;;;24.90;16.33;;;1.90;1.00;;;;;;5060145;28;20290;-83
2023/02/16 04:05:21;;;;;;;22.45;16.25;;;1.80;99.90;;;;;;5061115;28;20207;-83
2023/02/16 04:07:48;;;;;;;21.15;16.73;;;1.70;1.00;;;;;;5061537;28;20208;-83
2023/02/16 04:10:16;;;;;;;25.73;16.88;;;1.70;1.00;;;;;;5078178;28;20214;-82
2023/02/16 04:12:43;;;;;;;29.98;16.92;;;;;;;;;;5078530;28;20184;-83
2023/02/16 04:15:12;;;;;;;27.95;17.52;;;1.50;99.90;;;;;;5063227;28;20257;-84
2023/02/16 04:17:39;;;;;;;24.52;17.15;;;1.60;1.00;;;;;;5062548;28;20219;-83
2023/02/16 04:20:08;;;;;;;28.00;18.50;;;1.90;99.90;;;;;;5061179;28;20586;-84
2023/02/16 04:22:38;;;;;;;27.05;17.92;;;0.70;99.90;;;;;;5060747;28;20662;-84
2023/02/16 04:25:06;;;;;;;25.52;18.13;;;1.90;1.00;;;;;;5069320;28;20187;-80
2023/02/16 04:27:33;;;;;;;26.30;19.08;;;1.60;1.00;;;;;;5067650;28;20251;-82
2023/02/16 04:29:59;;;;;;;22.95;16.60;;;1.80;1.00;;;;;;5078584;28;20211;-82
2023/02/16 04:32:27;;;;;;;28.52;18.55;;;;;;;;;;5075894;28;20227;-83
2023/02/16 04:34:54;;;;;;;25.73;17.67;;;2.30;1.00;;;;;;5064791;28;20242;-83
2023/02/16 04:37:20;;;;;;;28.02;17.95;;;1.80;1.00;;;;;;5065204;28;20235;-83
2023/02/16 04:39:49;;;;;;;29.45;17.90;;;1.80;99.90;;;;;;5069124;28;20226;-82
2023/02/16 04:42:15;;;;;;;28.20;16.65;;;2.10;99.90;;;;;;5069660;28;20184;-82
2023/02/16 04:44:42;;;;;;;30.98;17.10;;;2.20;1.00;;;;;;5067882;28;20213;-82
2023/02/16 04:47:09;;;;;;;26.45;17.73;;;1.30;1.00;;;;;;5064212;28;20230;-82
2023/02/16 04:49:36;;;;;;;29.10;18.20;;;1.70;1.00;;;;;;5060562;28;20241;-82
2023/02/16 04:52:03;;;;;;;23.67;17.08;;;2.40;1.00;;;;;;5057436;28;20552;-81
2023/02/16 04:54:30;;;;;;;27.58;17.00;;;2.10;1.00;;;;;;5059946;28;20210;-82
2023/02/16 04:56:59;;;;;;;25.83;16.67;;;1.80;1.00;;;;;;5059470;28;20211;-82
2023/02/16 04:59:26;;;;;;;28.20;18.10;;;1.70;1.00;;;;;;5059103;28;20728;-83
2023/02/16 05:01:53;;;;;;;24.42;16.58;;;2.00;1.00;;;;;;5060269;28;20637;-84
2023/02/16 05:04:20;;;;;;;31.05;18.67;;;1.10;1.00;;;;;;5059093;28;20203;-84
2023/02/16 05:06:47;;;;;;;28.85;18.10;;;1.80;1.00;;;;;;5058333;28;20626;-84
2023/02/16 05:09:14;;;;;;;28.52;17.95;;;1.90;99.90;;;;;;5058678;28;20677;-82
2023/02/16 05:14:42;;;;;;;29.90;18.48;;;1.90;99.90;;;;;;5063889;28;20211;-83
2023/02/16 05:17:09;;;;;;;32.65;18.58;;;1.80;1.00;;;;;;5061005;28;20607;-84
2023/02/16 05:19:36;;;;;;;24.80;17.38;;;1.70;1.00;;;;;;5061830;28;20258;-83
2023/02/16 05:22:03;;;;;;;34.08;21.63;;;1.90;1.00;;;;;;5061568;28;20209;-84
2023/02/16 05:24:30;;;;;;;33.95;19.80;;;1.90;1.00;;;;;;5060510;28;20208;-84
2023/02/16 05:26:57;;;;;;;28.98;18.35;;;2.10;1.00;;;;;;5060156;28;20673;-84
2023/02/16 05:29:24;;;;;;;26.60;19.20;;;2.00;99.90;;;;;;5060206;28;20286;-84
2023/02/16 05:31:52;;;;;;;28.98;18.02;;;1.60;1.00;;;;;;5060917;28;20217;-84
2023/02/16 05:34:19;;;;;;;30.65;17.63;;;;;;;;;;5060702;28;20665;-84
2023/02/16 05:36:46;;;;;;;24.77;16.20;;;2.10;1.00;;;;;;5060352;28;20286;-84
2023/02/16 05:39:13;;;;;;;25.00;16.25;;;1.80;99.90;;;;;;5059911;28;20242;-84
2023/02/16 05:41:40;;;;;;;22.38;16.77;;;2.20;99.90;;;;;;5059639;28;20326;-84
2023/02/16 05:44:08;;;;;;;26.27;17.88;;;2.20;1.00;;;;;;5059870;28;20670;-84
2023/02/16 05:46:36;;;;;;;29.25;16.08;;;1.70;1.00;;;;;;5059995;28;20238;-84
2023/02/16 05:49:05;;;;;;;22.10;15.95;;;1.00;99.90;;;;;;5059316;28;20285;-84
2023/02/16 05:51:32;;;;;;;23.17;16.35;;;2.10;99.90;;;;;;5060168;28;20228;-83
2023/02/16 05:53:59;;;;;;;23.00;15.75;;;1.90;99.90;;;;;;5059506;28;20203;-83
2023/02/16 05:56:26;;;;;;;29.08;16.55;;;1.40;1.00;;;;;;5058963;28;20266;-83
2023/02/16 05:58:54;;;;;;;25.27;17.98;;;1.50;99.90;;;;;;5059517;28;20294;-83
2023/02/16 06:01:21;;;;;;;28.27;18.40;;;1.90;99.90;;;;;;5060791;28;20224;-81
2023/02/16 06:03:48;;;;;;;24.10;16.73;;;2.10;99.90;;;;;;5075919;28;20191;-81
2023/02/16 06:06:17;;;;;;;24.13;16.23;;;1.60;99.90;;;;;;5071762;28;20204;-83
2023/02/16 06:08:44;;;;;;;30.27;19.52;;;2.20;99.90;;;;;;5060543;28;20293;-84
2023/02/16 06:11:34;;;;;;;27.65;16.65;;;1.60;99.90;;;;;;5060105;28;20223;-83
2023/02/16 06:13:58;;;;;;;31.05;17.80;;;1.70;99.90;;;;;;5060267;28;20689;-83
2023/02/16 06:16:26;;;;;;;25.35;16.63;;;2.00;99.90;;;;;;5060864;28;20205;-82
2023/02/16 06:18:53;;;;;;;25.65;16.35;;;2.00;99.90;;;;;;5060549;28;20222;-84
2023/02/16 06:21:22;;;;;;;28.30;17.27;;;2.20;99.90;;;;;;5067779;28;20228;-83
2023/02/16 06:23:49;;;;;;;20.52;15.50;;;2.10;99.90;;;;;;5068914;28;20207;-84
2023/02/16 06:26:17;;;;;;;29.02;16.75;;;2.10;99.90;;;;;;5070366;28;20263;-83
2023/02/16 06:28:44;;;;;;;31.35;16.42;;;2.20;99.90;;;;;;5072758;28;20198;-83
2023/02/16 06:31:11;;;;;;;24.85;16.73;;;1.90;99.90;;;;;;5072401;28;20346;-82
2023/02/16 06:33:38;;;;;;;22.52;16.30;;;2.10;99.90;;;;;;5072854;28;20214;-84
2023/02/16 06:36:06;;;;;;;31.77;18.05;;;1.80;99.90;;;;;;5076274;28;20192;-84
2023/02/16 06:38:34;;;;;;;23.77;15.90;;;2.00;99.90;;;;;;5076518;28;20219;-84
2023/02/16 06:41:01;;;;;;;28.27;16.75;;;2.20;99.90;;;;;;5076028;28;20249;-84
2023/02/16 06:43:28;;;;;;;25.80;16.60;;;2.20;99.90;;;;;;5073382;28;20243;-84
2023/02/16 06:45:55;;;;;;;25.60;16.63;;;2.10;99.90;;;;;;5064815;28;20293;-83
2023/02/16 06:48:22;;;;;;;25.80;15.80;;;1.90;99.90;;;;;;5065961;28;20271;-84
2023/02/16 06:50:49;;;;;;;26.38;16.55;;;1.80;99.90;;;;;;5064490;28;20278;-85
2023/02/16 06:53:15;;;;;;;26.55;17.30;;;2.10;99.90;;;;;;5063817;28;20231;-84
2023/02/16 06:55:44;;;;;;;27.98;17.85;;;1.80;99.90;;;;;;5060783;28;20293;-84
2023/02/16 06:58:11;;;;;;;29.20;17.30;;;2.00;99.90;;;;;;5063220;28;20206;-83
2023/02/16 07:00:38;;;;;;;24.85;15.60;;;2.50;99.90;;;;;;5063886;28;20227;-82
2023/02/16 07:03:05;;;;;;;27.75;15.98;;;2.50;99.90;;;;;;5063593;28;20695;-82
2023/02/16 07:05:32;;;;;;;24.75;16.40;;;1.90;99.90;;;;;;5062254;28;20718;-84
2023/02/16 07:07:59;;;;;;;31.38;17.30;;;1.90;99.90;;;;;;5062551;28;20214;-84
2023/02/16 07:10:25;;;;;;;28.60;18.88;;;2.40;99.90;;;;;;5073775;28;20302;-83
2023/02/16 07:12:54;;;;;;;27.98;17.58;;;2.00;99.90;;;;;;5076218;28;20267;-82
2023/02/16 07:15:20;;;;;;;31.35;18.20;;;2.60;99.90;;;;;;5079556;28;20192;-84
2023/02/16 07:17:48;;;;;;;27.42;17.88;;;;;;;;;;5080477;28;20235;-81
2023/02/16 07:20:14;;;;;;;25.10;16.42;;;2.70;99.90;;;;;;5078213;28;20311;-83
2023/02/16 07:22:41;;;;;;;25.85;16.42;;;1.90;99.90;;;;;;5078946;28;20283;-82
2023/02/16 07:25:08;;;;;;;25.15;17.50;;;2.40;31.40;;;;;;5079191;28;20187;-84
2023/02/16 07:27:35;;;;;;;25.60;16.98;;;2.20;99.90;;;;;;5079392;28;20183;-83
2023/02/16 07:30:03;;;;;;;26.27;19.05;;;2.80;99.90;;;;;;5077783;28;20232;-83
2023/02/16 07:32:30;;;;;;;24.92;17.67;;;2.50;99.90;;;;;;5069725;28;20210;-83
2023/02/16 07:34:57;;;;;;;29.92;20.20;;;2.40;99.90;;;;;;5068719;28;20311;-85
2023/02/16 07:37:25;;;;;;;29.65;17.02;;;2.50;99.90;;;;;;5069850;28;20241;-83
2023/02/16 07:39:52;;;;;;;26.10;18.35;;;;;;;;;;5067930;28;20306;-84
2023/02/16 07:42:20;;;;;;;26.52;16.67;;;;;;;;;;5069839;28;20215;-84
2023/02/16 07:44:47;;;;;;;29.45;19.27;;;2.80;99.90;;;;;;5066508;28;20216;-83
2023/02/16 07:47:15;;;;;;;33.42;18.00;;;2.60;1.00;;;;;;5064959;28;20235;-84
2023/02/16 07:49:42;;;;;;;31.42;19.27;;;2.40;99.90;;;;;;5066668;28;20223;-83
2023/02/16 07:52:09;;;;;;;29.80;18.65;;;2.60;99.90;;;;;;5066238;28;20208;-84
2023/02/16 07:54:36;;;;;;;28.77;17.45;;;2.60;99.90;;;;;;5067944;28;20670;-84
2023/02/16 07:57:02;;;;;;;27.55;18.27;;;2.90;72.60;;;;;;5065956;28;20235;-83
2023/02/16 07:59:29;;;;;;;26.42;17.17;;;2.70;99.90;;;;;;5060601;28;20227;-81
2023/02/16 08:01:56;;;;;;;25.30;17.90;;;3.30;99.90;;;;;;5062009;28;20662;-84
2023/02/16 08:04:24;;;;;;;35.60;21.40;;;3.30;99.90;;;;;;5062796;28;20303;-82
2023/02/16 08:06:51;;;;;;;41.90;22.52;;;2.80;99.90;;;;;;5064472;28;20286;-82
2023/02/16 08:09:18;;;;;;;38.95;20.08;;;2.90;99.90;;;;;;5065262;28;20563;-84
2023/02/16 08:11:45;;;;;;;29.17;18.42;;;3.30;99.90;;;;;;5063688;28;20293;-84
2023/02/16 08:14:12;;;;;;;33.10;19.27;;;;;;;;;;5063683;28;20305;-83
2023/02/16 08:16:39;;;;;;;30.75;18.48;;;3.20;88.70;;;;;;5063653;28;20257;-84
2023/02/16 08:19:08;;;;;;;32.08;19.27;;;;;;;;;;5071439;28;20291;-82
2023/02/16 08:21:38;;;;;;;32.67;18.10;;;;;;;;;;5070631;28;20234;-86
2023/02/16 08:24:07;;;;;;;30.83;19.63;;;3.20;76.10;;;;;;5079678;28;20202;-83
2023/02/16 08:26:36;;;;;;;33.28;20.77;;;3.40;1.00;;;;;;5077906;28;20196;-83
2023/02/16 08:29:04;;;;;;;24.52;17.58;;;3.70;1.00;;;;;;5076497;28;20539;-81
2023/02/16 08:31:35;;;;;;;30.58;18.73;;;3.60;1.00;;;;;;5071239;28;20243;-82
2023/02/16 08:34:02;;;;;;;37.78;20.02;;;3.40;1.00;;;;;;5070361;28;20215;-82
2023/02/16 08:36:32;;;;;;;31.17;18.48;;;4.20;1.00;;;;;;5072013;28;20215;-83
2023/02/16 08:39:02;;;;;;;37.75;20.50;;;4.00;1.00;;;;;;5067264;28;20230;-82
2023/02/16 08:41:31;;;;;;;29.25;19.35;;;4.00;1.00;;;;;;5059237;22;20227;-80
2023/02/16 08:43:59;;;;;;;25.77;17.88;;;3.50;1.00;;;;;;5039123;28;20315;-80
2023/02/16 08:46:27;;;;;;;27.08;18.42;;;;;;;;;;5038086;28;20215;-82
2023/02/16 08:48:57;;;;;;;27.55;17.73;;;;;;;;;;5039672;28;20203;-80
2023/02/16 08:51:24;;;;;;;29.80;19.63;;;4.30;1.00;;;;;;5038242;28;20607;-81
2023/02/16 08:53:51;;;;;;;32.03;19.80;;;4.10;99.90;;;;;;5038545;28;20207;-81
2023/02/16 08:56:19;;;;;;;33.85;20.23;;;4.20;99.90;;;;;;5038140;28;20216;-81
2023/02/16 08:58:46;;;;;;;30.45;20.58;;;4.60;1.00;;;;;;5037947;28;20211;-81
2023/02/16 09:01:15;;;;;;;28.85;19.45;;;4.30;99.90;;;;;;5037728;28;20228;-81
2023/02/16 09:03:43;;;;;;;29.88;19.58;;;4.40;1.00;;;;;;5037483;28;20580;-80
2023/02/16 09:06:12;;;;;;;31.88;21.20;;;4.70;1.00;;;;;;5037426;28;20675;-81
2023/02/16 09:08:39;;;;;;;32.15;21.90;;;4.60;99.90;;;;;;5037118;28;20299;-81
2023/02/16 09:11:08;;;;;;;29.35;19.38;;;4.70;99.90;;;;;;5047392;28;20284;-80
2023/02/16 09:13:38;;;;;;;32.70;19.40;;;4.50;99.90;;;;;;5048982;28;20204;-78
2023/02/16 09:16:07;;;;;;;32.47;20.92;;;5.10;1.00;;;;;;5050506;28;20203;-80
2023/02/16 09:18:35;;;;;;;28.30;18.77;;;4.90;1.00;;;;;;5042574;28;20273;-80
2023/02/16 09:21:05;;;;;;;30.60;20.63;;;5.00;1.00;;;;;;5041141;28;20232;-81
2023/02/16 09:23:32;;;;;;;28.33;19.00;;;5.50;99.90;;;;;;5040774;28;20270;-81
2023/02/16 09:26:00;;;;;;;29.50;19.33;;;5.50;99.90;;;;;;5038834;28;20505;-81
2023/02/16 09:28:27;;;;;;;27.20;18.52;;;5.20;99.90;;;;;;5038600;28;20259;-81
2023/02/16 09:30:55;;;;;;;29.67;20.92;;;5.50;1.00;;;;;;5037774;28;20259;-81
2023/02/16 09:33:22;;;;;;;32.28;18.63;;;5.40;99.90;;;;;;5037880;28;20283;-81
2023/02/16 09:35:49;;;;;;;27.52;17.88;;;5.70;99.90;;;;;;5046398;28;20267;-80
2023/02/16 09:38:16;;;;;;;30.23;20.45;;;5.60;99.90;;;;;;5047472;28;20205;-80
2023/02/16 09:40:43;;;;;;;38.22;22.00;;;6.00;1.00;;;;;;5048590;28;20269;-80
2023/02/16 09:43:22;;;;;;;26.92;19.60;;;6.30;1.00;;;;;;5047455;28;20264;-80
2023/02/16 09:45:53;;;;;;;31.95;20.25;;;6.20;1.00;;;;;;5044909;28;20195;-80
2023/02/16 09:48:29;;;;;;;30.42;18.48;;;6.30;1.00;;;;;;5037812;28;20190;-80
2023/02/16 09:50:58;;;;;;;40.33;21.10;;;6.20;53.70;;;;;;5037352;28;20285;-81
2023/02/16 09:53:38;;;;;;;29.25;18.95;;;6.60;1.00;;;;;;5037171;28;20216;-81
2023/02/16 09:56:15;;;;;;;34.22;18.40;;;6.60;99.90;;;;;;5037272;28;20197;-80
2023/02/16 09:58:45;;;;;;;33.42;20.02;;;7.00;99.90;;;;;;5036944;28;20275;-80
2023/02/16 10:01:20;;;;;;;31.98;19.80;;;6.40;1.00;;;;;;5037079;28;20235;-80
2023/02/16 10:04:00;;;;;;;36.83;20.90;;;6.50;99.90;;;;;;5048321;28;20252;-82
2023/02/16 10:06:42;;;;;;;32.80;20.25;;;6.90;99.90;;;;;;5053707;28;20316;-80
2023/02/16 10:09:15;;;;;;;31.52;19.90;;;7.20;99.90;;;;;;5048454;28;20204;-82
2023/02/16 10:11:47;;;;;;;31.75;21.13;;;7.20;82.50;;;;;;5041538;28;20655;-80
2023/02/16 10:14:35;;;;;;;32.95;19.25;;;7.60;1.00;;;;;;5047336;28;20193;-81
2023/02/16 10:17:12;;;;;;;30.33;20.27;;;7.60;1.00;;;;;;5042783;28;20221;-81
2023/02/16 10:19:46;;;;;;;32.28;20.80;;;7.70;5.90;;;;;;5037544;28;20218;-80
2023/02/16 10:22:16;;;;;;;32.60;19.65;;;7.50;99.90;;;;;;5037587;28;20288;-80
2023/02/16 10:24:52;;;;;;;32.50;20.40;;;7.60;99.90;;;;;;5041464;28;20198;-79
2023/02/16 10:27:21;;;;;;;28.00;19.80;;;7.70;1.00;;;;;;5043585;28;20607;-79
2023/02/16 10:29:48;;;;;;;32.92;21.52;;;7.40;1.00;;;;;;5044207;28;20649;-79
2023/02/16 10:32:24;;;;;;;27.63;19.20;;;7.60;99.90;;;;;;5044376;28;20288;-80
2023/02/16 10:35:02;;;;;;;39.47;21.77;;;8.20;99.90;;;;;;5037065;28;20197;-82
2023/02/16 10:37:40;;;;;;;35.10;22.10;;;7.90;1.00;;;;;;5037466;28;20456;-80
2023/02/16 10:40:27;;;;;;;34.10;20.30;;;8.10;10.00;;;;;;5035679;28;20248;-82
2023/02/16 10:43:03;;;;;;;32.28;19.70;;;7.80;1.00;;;;;;5036450;28;20413;-80
2023/02/16 10:45:35;;;;;;;34.67;20.73;;;8.00;1.00;;;;;;5036967;28;20197;-82
2023/02/16 10:48:02;;;;;;;36.03;20.53;;;;;;;;;;5036092;28;20407;-80
2023/02/16 10:50:36;;;;;;;28.90;18.90;;;8.20;99.90;;;;;;5039044;28;20441;-80
2023/02/16 10:53:09;;;;;;;33.80;21.10;;;8.30;99.90;;;;;;5041491;28;20836;-81
2023/02/16 10:55:37;;;;;;;30.03;18.40;;;8.70;1.00;;;;;;5041737;28;20477;-80
2023/02/16 10:58:04;;;;;;;37.73;20.70;;;;;;;;;;5040622;28;20448;-81
2023/02/16 11:00:45;;;;;;;33.83;20.70;;;8.60;99.90;;;;;;5041689;28;20549;-81
2023/02/16 11:03:14;;;;;;;29.73;19.07;;;9.00;1.00;;;;;;5046121;28;20471;-81
2023/02/16 11:05:42;;;;;;;33.70;20.97;;;;;;;;;;5046178;28;20470;-80
2023/02/16 11:08:11;;;;;;;53.50;23.23;;;8.70;99.90;;;;;;5046469;28;20468;-82
2023/02/16 11:10:47;;;;;;;34.93;21.93;;;8.70;99.90;;;;;;5046762;28;20490;-80
2023/02/16 11:13:25;;;;;;;28.87;19.10;;;9.00;39.80;;;;;;5047970;28;20467;-80
2023/02/16 11:15:54;;;;;;;42.10;19.53;;;8.90;52.80;;;;;;5049574;28;20456;-80
2023/02/16 11:18:33;;;;;;;33.00;20.20;;;8.70;99.90;;;;;;5044142;28;20457;-80
2023/02/16 11:21:02;;;;;;;32.50;20.03;;;8.70;99.90;;;;;;5039560;28;21019;-81
2023/02/16 11:23:31;;;;;;;30.43;18.67;;;9.40;99.90;;;;;;5041503;28;20873;-81
2023/02/16 11:26:02;;;;;;;29.83;19.23;;;9.00;99.90;;;;;;5051155;28;20502;-80
2023/02/16 11:28:35;;;;;;;34.93;21.57;;;8.90;99.90;;;;;;5051806;28;20440;-79
2023/02/16 11:31:17;;;;;;;34.27;21.57;;;8.90;99.90;;;;;;5050962;28;20503;-80
2023/02/16 11:33:56;;;;;;;31.93;20.23;;;8.90;1.00;;;;;;5050399;28;20450;-80
2023/02/16 11:36:31;;;;;;;35.83;20.97;;;8.60;99.90;;;;;;5044652;28;20506;-81
2023/02/16 11:39:05;;;;;;;27.43;17.87;;;8.60;1.00;;;;;;5041276;28;20432;-81
2023/02/16 11:41:33;;;;;;;27.03;19.53;;;8.90;1.00;;;;;;5039964;28;20464;-80
2023/02/16 11:44:02;;;;;;;37.80;22.73;;;9.50;1.00;;;;;;5040080;28;20433;-80
2023/02/16 11:46:39;;;;;;;39.57;22.90;;;9.30;99.90;;;;;;5039556;28;20453;-81
2023/02/16 11:49:28;;;;;;;28.50;20.60;;;9.20;1.00;;;;;;5040008;28;20432;-81
2023/02/16 11:51:57;;;;;;;34.07;19.03;;;9.30;1.00;;;;;;5039120;28;20975;-80
2023/02/16 11:54:26;;;;;;;54.47;21.50;;;;;;;;;;5039610;28;20547;-80
2023/02/16 11:57:04;;;;;;;29.33;18.83;;;9.50;99.90;;;;;;5041004;28;20434;-81
2023/02/16 11:59:36;;;;;;;28.73;19.20;;;9.80;99.90;;;;;;5040310;28;20466;-80
2023/02/16 12:02:31;;;;;;;31.60;19.80;;;9.50;1.00;;;;;;5042364;28;20955;-79
2023/02/16 12:05:14;;;;;;;33.37;21.30;;;9.60;30.80;;;;;;5039857;28;20425;-81
2023/02/16 12:07:50;;;;;;;28.85;20.25;;;10.00;99.90;;;;;;5038989;28;20430;-82
2023/02/16 12:10:22;;;;;;;31.33;18.50;;;10.10;1.00;;;;;;5040973;28;20225;-80
2023/02/16 12:12:59;;;;;;;30.03;19.43;;;9.40;99.90;;;;;;5059195;28;20465;-80
2023/02/16 12:15:32;;;;;;;37.13;19.57;;;9.80;8.00;;;;;;5059355;28;20434;-80
2023/02/16 12:18:17;;;;;;;28.73;18.43;;;9.90;66.70;;;;;;5053814;28;20434;-82
2023/02/16 12:20:53;;;;;;;24.45;17.42;;;10.20;1.00;;;;;;5039813;28;20355;-81
2023/02/16 12:23:33;;;;;;;32.57;17.73;;;9.70;99.90;;;;;;5042575;28;20256;-81
2023/02/16 12:26:13;;;;;;;26.15;18.20;;;10.00;28.10;;;;;;5051648;28;20515;-80
2023/02/16 12:28:48;;;;;;;25.43;17.10;;;10.00;99.90;;;;;;5053380;28;20246;-80
2023/02/16 12:31:26;;;;;;;30.87;19.63;;;10.00;60.70;;;;;;5047050;28;20443;-80
2023/02/16 12:34:02;;;;;;;31.00;19.27;;;10.50;1.00;;;;;;5039192;28;20826;-80
2023/02/16 12:36:42;;;;;;;28.83;19.70;;;10.40;1.00;;;;;;5041297;28;20487;-80
2023/02/16 12:39:17;;;;;;;27.30;18.40;;;10.10;1.00;;;;;;5045926;28;20440;-80
2023/02/16 12:41:58;;;;;;;33.53;18.20;;;10.20;1.00;;;;;;5039240;28;20944;-80
2023/02/16 12:44:32;;;;;;;28.93;20.17;;;10.10;1.00;;;;;;5038224;28;20418;-81
2023/02/16 12:47:04;;;;;;;29.87;18.80;;;10.10;97.10;;;;;;5038226;28;20433;-81
2023/02/16 12:49:43;;;;;;;27.73;17.63;;;10.00;99.90;;;;;;5038663;28;20952;-81
2023/02/16 12:52:21;;;;;;;27.07;18.30;;;10.50;1.00;;;;;;5039643;28;20472;-81
2023/02/16 12:54:54;;;;;;;25.87;17.13;;;9.80;99.90;;;;;;5038981;28;20433;-81
2023/02/16 12:57:24;;;;;;;26.43;16.87;;;10.00;99.90;;;;;;5039410;28;20437;-81
2023/02/16 12:59:58;;;;;;;31.83;18.90;;;10.20;1.00;;;;;;5039159;28;20478;-81
2023/02/16 13:02:32;;;;;;;28.40;18.97;;;9.80;1.00;;;;;;5039349;28;20953;-81
2023/02/16 13:05:07;;;;;;;26.27;18.37;;;10.20;99.90;;;;;;5038983;28;20415;-81
2023/02/16 13:07:38;;;;;;;23.70;16.90;;;10.20;99.90;;;;;;5038603;28;20437;-81
2023/02/16 13:10:18;;;;;;;29.53;17.63;;;10.30;1.00;;;;;;5038605;28;20476;-81
2023/02/16 13:12:51;;;;;;;31.10;18.13;;;10.30;1.00;;;;;;5047426;28;20851;-80
2023/02/16 13:15:21;;;;;;;32.47;18.23;;;10.30;99.90;;;;;;5050694;28;20437;-80
2023/02/16 13:17:53;;;;;;;24.50;17.87;;;10.20;99.90;;;;;;5050876;28;20411;-80
2023/02/16 13:20:22;;;;;;;28.87;19.00;;;10.20;1.00;;;;;;5046758;28;20459;-81
2023/02/16 13:23:20;;;;;;;53.47;20.80;;;10.00;1.00;;;;;;5042000;28;20455;-81
2023/02/16 13:26:09;;;;;;;39.50;21.93;;;9.90;44.20;;;;;;5046434;28;20407;-81
2023/02/16 13:29:10;;;;;;;46.00;20.67;;;10.20;99.90;;;;;;5046948;28;20485;-81
2023/02/16 13:31:57;;;;;;;36.13;17.77;;;10.30;99.90;;;;;;5051792;28;20460;-80
2023/02/16 13:34:46;;;;;;;35.30;17.10;;;10.50;1.00;;;;;;5051134;28;20831;-81
2023/02/16 13:37:23;;;;;;;34.23;17.10;;;10.20;95.60;;;;;;5043314;28;20437;-81
2023/02/16 13:40:25;;;;;;;25.10;16.77;;;10.60;61.00;;;;;;5041988;28;20467;-79
2023/02/16 13:43:14;;;;;;;25.37;16.90;;;10.60;1.00;;;;;;5042367;28;20439;-80